PWSweather.com
Personal Weather Stations
Station Observations
BC052CD
On, Kemptville, ON K0G 1J0

OnKemptville, ON K0G 1J0

Lat: 45.0173179, Lon: -75.6329355

Elevation: 295

Station Type: National Geographic 265NC

http://kerrentweather.ca

Latest ConditionsUpdated 5:00:06 PM EST Saturday, Feb 23, 2019
Currently Today's Max Today's Min Today's Average
Temperature 34.0°F1.1°C 40.1°F4.5°C 5.9°F-14.5°C 23.7°F-4.6°C
Dew Point 13.3°F-10.4°C 18.4°F-7.6°C -3.9°F-19.9°C 9.3°F-12.6°C
Winds 5.6 mph N9.0 kmh N 5.6 mph -9.0 kmh - - 1.4 mph 2.3 kmh
Wind Gusts 11.5 mph18.5 kmh 12.3 mph19.8 kmh - -
Humidity 42% 70% 36% 55%
Pressure 30.31 in1026.4 mb 30.54 in1034.2 mb 30.31 in1026.4 mb -
Hour Temp Dew Point Humidity Winds Wind Gusts Pressure Precip Precip Rate Daily Precip Total
05:00 PM 34.0°F1.1°C 13.3°F-10.4°C 42% 5.6 mph N9.0 kmh N 11.5 mph18.5 kmh 30.31 in1026.4 mb 0.00 in0.0 mm 0.00 in0.0 mm 0.00 in0.0 mm
04:45 PM 34.3°F1.3°C 13.1°F-10.5°C 41% 2.8 mph N4.5 kmh N 8.7 mph14.0 kmh 30.32 in1026.8 mb 0.00 in0.0 mm 0.00 in0.0 mm 0.00 in0.0 mm
04:30 PM 34.5°F1.4°C 13.3°F-10.4°C 41% 3.9 mph N6.3 kmh N 8.7 mph14.0 kmh 30.34 in1027.4 mb 0.00 in0.0 mm 0.00 in0.0 mm 0.00 in0.0 mm
04:15 PM 35.1°F1.7°C 13.2°F-10.4°C 40% 2.8 mph N4.5 kmh N 9.5 mph15.3 kmh 30.35 in1027.8 mb 0.00 in0.0 mm 0.00 in0.0 mm 0.00 in0.0 mm
04:00 PM 35.8°F2.1°C 13.3°F-10.4°C 39% 3.9 mph N6.3 kmh N 9.5 mph15.3 kmh 30.36 in1028.1 mb 0.00 in0.0 mm 0.00 in0.0 mm 0.00 in0.0 mm
03:45 PM 36.3°F2.4°C 13.2°F-10.4°C 38% 4.8 mph N7.7 kmh N 11.5 mph18.5 kmh 30.36 in1028.1 mb 0.00 in0.0 mm 0.00 in0.0 mm 0.00 in0.0 mm
03:30 PM 36.9°F2.7°C 14.2°F-9.9°C 39% 2.0 mph N3.2 kmh N 10.3 mph16.6 kmh 30.36 in1028.1 mb 0.00 in0.0 mm 0.00 in0.0 mm 0.00 in0.0 mm
03:15 PM 37.2°F2.9°C 14.0°F-10.0°C 38% 2.0 mph N3.2 kmh N 8.7 mph14.0 kmh 30.36 in1028.1 mb 0.00 in0.0 mm 0.00 in0.0 mm 0.00 in0.0 mm
03:00 PM 37.9°F3.3°C 14.0°F-10.0°C 37% 2.8 mph N4.5 kmh N 10.3 mph16.6 kmh 30.36 in1028.1 mb 0.00 in0.0 mm 0.00 in0.0 mm 0.00 in0.0 mm
02:45 PM 38.5°F3.6°C 15.1°F-9.4°C 38% 2.0 mph N3.2 kmh N 9.5 mph15.3 kmh 30.37 in1028.4 mb 0.00 in0.0 mm 0.00 in0.0 mm 0.00 in0.0 mm
02:30 PM 38.3°F3.5°C 14.3°F-9.8°C 37% 2.8 mph N4.5 kmh N 8.7 mph14.0 kmh 30.38 in1028.8 mb 0.00 in0.0 mm 0.00 in0.0 mm 0.00 in0.0 mm
02:15 PM 39.4°F4.1°C 14.7°F-9.6°C 36% 2.0 mph N3.2 kmh N 11.5 mph18.5 kmh 30.39 in1029.1 mb 0.00 in0.0 mm 0.00 in0.0 mm 0.00 in0.0 mm
02:00 PM 40.1°F4.5°C 15.9°F-8.9°C 37% 2.0 mph N3.2 kmh N 9.5 mph15.3 kmh 30.38 in1028.8 mb 0.00 in0.0 mm 0.00 in0.0 mm 0.00 in0.0 mm
01:45 PM 39.6°F4.2°C 15.5°F-9.2°C 37% 2.8 mph N4.5 kmh N 12.3 mph19.8 kmh 30.39 in1029.1 mb 0.00 in0.0 mm 0.00 in0.0 mm 0.00 in0.0 mm
01:30 PM 40.1°F4.5°C 15.9°F-8.9°C 37% 2.0 mph N3.2 kmh N 10.3 mph16.6 kmh 30.41 in1029.8 mb 0.00 in0.0 mm 0.00 in0.0 mm 0.00 in0.0 mm
01:15 PM 39.9°F4.4°C 17.0°F-8.3°C 39% 0.8 mph N1.3 kmh N 6.7 mph10.8 kmh 30.42 in1030.1 mb 0.00 in0.0 mm 0.00 in0.0 mm 0.00 in0.0 mm
01:00 PM 38.1°F3.4°C 16.0°F-8.9°C 40% 4.8 mph N7.7 kmh N 9.5 mph15.3 kmh 30.43 in1030.5 mb 0.00 in0.0 mm 0.00 in0.0 mm 0.00 in0.0 mm
12:45 PM 36.9°F2.7°C 14.8°F-9.6°C 40% 2.8 mph N4.5 kmh N 9.5 mph15.3 kmh 30.44 in1030.8 mb 0.00 in0.0 mm 0.00 in0.0 mm 0.00 in0.0 mm
12:30 PM 36.3°F2.4°C 14.3°F-9.8°C 40% 3.9 mph N6.3 kmh N 11.5 mph18.5 kmh 30.45 in1031.2 mb 0.00 in0.0 mm 0.00 in0.0 mm 0.00 in0.0 mm
12:15 PM 36.9°F2.7°C 14.2°F-9.9°C 39% 2.8 mph N4.5 kmh N 8.7 mph14.0 kmh 30.46 in1031.5 mb 0.00 in0.0 mm 0.00 in0.0 mm 0.00 in0.0 mm
12:00 PM 36.5°F2.5°C 15.1°F-9.4°C 41% 2.0 mph N3.2 kmh N 8.7 mph14.0 kmh 30.48 in1032.2 mb 0.00 in0.0 mm 0.00 in0.0 mm 0.00 in0.0 mm
11:45 AM 36.7°F2.6°C 15.8°F-9.0°C 42% 2.8 mph N4.5 kmh N 8.7 mph14.0 kmh 30.48 in1032.2 mb 0.00 in0.0 mm 0.00 in0.0 mm 0.00 in0.0 mm
11:30 AM 36.3°F2.4°C 16.5°F-8.6°C 44% 2.8 mph N4.5 kmh N 10.3 mph16.6 kmh 30.48 in1032.2 mb 0.00 in0.0 mm 0.00 in0.0 mm 0.00 in0.0 mm
11:15 AM 35.8°F2.1°C 16.5°F-8.6°C 45% 2.0 mph N3.2 kmh N 11.5 mph18.5 kmh 30.47 in1031.8 mb 0.00 in0.0 mm 0.00 in0.0 mm 0.00 in0.0 mm
11:00 AM 36.1°F2.3°C 18.4°F-7.6°C 48% 3.9 mph N6.3 kmh N 9.5 mph15.3 kmh 30.48 in1032.2 mb 0.00 in0.0 mm 0.00 in0.0 mm 0.00 in0.0 mm
10:45 AM 34.2°F1.2°C 17.5°F-8.1°C 50% 2.8 mph N4.5 kmh N 5.6 mph9.0 kmh 30.48 in1032.2 mb 0.00 in0.0 mm 0.00 in0.0 mm 0.00 in0.0 mm
10:30 AM 33.1°F0.6°C 17.8°F-7.9°C 53% Calm Calm 5.6 mph9.0 kmh 30.48 in1032.2 mb 0.00 in0.0 mm 0.00 in0.0 mm 0.00 in0.0 mm
10:15 AM 32.4°F0.2°C 18.4°F-7.6°C 56% 0.8 mph N1.3 kmh N 4.8 mph7.7 kmh 30.48 in1032.2 mb 0.00 in0.0 mm 0.00 in0.0 mm 0.00 in0.0 mm
10:00 AM 30.7°F-0.7°C 18.1°F-7.7°C 59% Calm Calm 5.6 mph9.0 kmh 30.48 in1032.2 mb 0.00 in0.0 mm 0.00 in0.0 mm 0.00 in0.0 mm
09:45 AM 28.4°F-2.0°C 17.1°F-8.3°C 62% 3.9 mph N6.3 kmh N 6.7 mph10.8 kmh 30.48 in1032.2 mb 0.00 in0.0 mm 0.00 in0.0 mm 0.00 in0.0 mm
09:30 AM 27.1°F-2.7°C 16.6°F-8.6°C 64% 3.9 mph N6.3 kmh N 6.7 mph10.8 kmh 30.49 in1032.5 mb 0.00 in0.0 mm 0.00 in0.0 mm 0.00 in0.0 mm
09:15 AM 25.5°F-3.6°C 15.8°F-9.0°C 66% 2.8 mph N4.5 kmh N 4.8 mph7.7 kmh 30.52 in1033.5 mb 0.00 in0.0 mm 0.00 in0.0 mm 0.00 in0.0 mm
09:00 AM 24.1°F-4.4°C 15.1°F-9.4°C 68% Calm Calm 2.8 mph4.5 kmh 30.52 in1033.5 mb 0.00 in0.0 mm 0.00 in0.0 mm 0.00 in0.0 mm
08:45 AM 22.8°F-5.1°C 14.2°F-9.9°C 69% Calm Calm 2.8 mph4.5 kmh 30.52 in1033.5 mb 0.00 in0.0 mm 0.00 in0.0 mm 0.00 in0.0 mm
08:30 AM 21.4°F-5.9°C 13.2°F-10.4°C 70% Calm Calm 2.8 mph4.5 kmh 30.52 in1033.5 mb 0.00 in0.0 mm 0.00 in0.0 mm 0.00 in0.0 mm
08:15 AM 19.9°F-6.7°C 11.8°F-11.2°C 70% Calm Calm 2.8 mph4.5 kmh 30.52 in1033.5 mb 0.00 in0.0 mm 0.00 in0.0 mm 0.00 in0.0 mm
08:00 AM 18.9°F-7.3°C 10.8°F-11.8°C 70% Calm Calm 3.9 mph6.3 kmh 30.53 in1033.9 mb 0.00 in0.0 mm 0.00 in0.0 mm 0.00 in0.0 mm
07:45 AM 18.0°F-7.8°C 9.9°F-12.3°C 70% Calm Calm 2.8 mph4.5 kmh 30.53 in1033.9 mb 0.00 in0.0 mm 0.00 in0.0 mm 0.00 in0.0 mm
07:30 AM 17.4°F-8.1°C 9.4°F-12.6°C 70% Calm Calm 2.8 mph4.5 kmh 30.53 in1033.9 mb 0.00 in0.0 mm 0.00 in0.0 mm 0.00 in0.0 mm
07:15 AM 16.5°F-8.6°C 8.2°F-13.2°C 69% 2.0 mph N3.2 kmh N 2.8 mph4.5 kmh 30.54 in1034.2 mb 0.00 in0.0 mm 0.00 in0.0 mm 0.00 in0.0 mm
07:00 AM 16.0°F-8.9°C 7.7°F-13.5°C 69% 0.8 mph N1.3 kmh N 2.0 mph3.2 kmh 30.53 in1033.9 mb 0.00 in0.0 mm 0.00 in0.0 mm 0.00 in0.0 mm
06:45 AM 15.4°F-9.2°C 7.2°F-13.8°C 69% 0.8 mph N1.3 kmh N 2.8 mph4.5 kmh 30.53 in1033.9 mb 0.00 in0.0 mm 0.00 in0.0 mm 0.00 in0.0 mm
06:30 AM 15.1°F-9.4°C 6.8°F-14.0°C 69% 0.8 mph N1.3 kmh N 2.8 mph4.5 kmh 30.53 in1033.9 mb 0.00 in0.0 mm 0.00 in0.0 mm 0.00 in0.0 mm
06:15 AM 14.5°F-9.7°C 6.0°F-14.4°C 68% Calm Calm 2.8 mph4.5 kmh 30.53 in1033.9 mb 0.00 in0.0 mm 0.00 in0.0 mm 0.00 in0.0 mm
06:00 AM 14.0°F-10.0°C 5.5°F-14.7°C 68% 0.8 mph N1.3 kmh N 2.8 mph4.5 kmh 30.53 in1033.9 mb 0.00 in0.0 mm 0.00 in0.0 mm 0.00 in0.0 mm
05:45 AM 13.5°F-10.3°C 4.9°F-15.1°C 68% 0.8 mph N1.3 kmh N 2.8 mph4.5 kmh 30.53 in1033.9 mb 0.00 in0.0 mm 0.00 in0.0 mm 0.00 in0.0 mm
05:30 AM 12.6°F-10.8°C 4.1°F-15.5°C 68% 0.8 mph N1.3 kmh N 2.8 mph4.5 kmh 30.54 in1034.2 mb 0.00 in0.0 mm 0.00 in0.0 mm 0.00 in0.0 mm
05:15 AM 11.8°F-11.2°C 3.1°F-16.1°C 67% Calm Calm 2.0 mph3.2 kmh 30.54 in1034.2 mb 0.00 in0.0 mm 0.00 in0.0 mm 0.00 in0.0 mm
05:00 AM 10.9°F-11.7°C 2.2°F-16.6°C 67% Calm Calm 2.0 mph3.2 kmh 30.54 in1034.2 mb 0.00 in0.0 mm 0.00 in0.0 mm 0.00 in0.0 mm
04:45 AM 9.9°F-12.3°C 0.9°F-17.3°C 66% Calm Calm 2.0 mph3.2 kmh 30.54 in1034.2 mb 0.00 in0.0 mm 0.00 in0.0 mm 0.00 in0.0 mm
04:30 AM 8.6°F-13.0°C -0.3°F-17.9°C 66% Calm Calm -- 30.53 in1033.9 mb 0.00 in0.0 mm 0.00 in0.0 mm 0.00 in0.0 mm
04:15 AM 7.9°F-13.4°C -1.3°F-18.5°C 65% Calm Calm 0.8 mph1.3 kmh 30.53 in1033.9 mb 0.00 in0.0 mm 0.00 in0.0 mm 0.00 in0.0 mm
04:00 AM 7.0°F-13.9°C -2.5°F-19.2°C 64% Calm Calm -- 30.53 in1033.9 mb 0.00 in0.0 mm 0.00 in0.0 mm 0.00 in0.0 mm
03:45 AM 6.4°F-14.2°C -3.0°F-19.4°C 64% Calm Calm 0.8 mph1.3 kmh 30.53 in1033.9 mb 0.00 in0.0 mm 0.00 in0.0 mm 0.00 in0.0 mm
03:30 AM 5.9°F-14.5°C -3.9°F-19.9°C 63% Calm Calm 2.0 mph3.2 kmh 30.52 in1033.5 mb 0.00 in0.0 mm 0.00 in0.0 mm 0.00 in0.0 mm
03:15 AM 6.3°F-14.3°C -3.9°F-19.9°C 62% Calm Calm 2.0 mph3.2 kmh 30.52 in1033.5 mb 0.00 in0.0 mm 0.00 in0.0 mm 0.00 in0.0 mm
03:00 AM 7.2°F-13.8°C -3.0°F-19.4°C 62% Calm Calm 0.8 mph1.3 kmh 30.53 in1033.9 mb 0.00 in0.0 mm 0.00 in0.0 mm 0.00 in0.0 mm
02:45 AM 8.1°F-13.3°C -2.2°F-19.0°C 62% Calm Calm -- 30.54 in1034.2 mb 0.00 in0.0 mm 0.00 in0.0 mm 0.00 in0.0 mm
02:30 AM 9.0°F-12.8°C -1.3°F-18.5°C 62% Calm Calm 0.8 mph1.3 kmh 30.54 in1034.2 mb 0.00 in0.0 mm 0.00 in0.0 mm 0.00 in0.0 mm
02:15 AM 9.9°F-12.3°C -0.5°F-18.1°C 62% Calm Calm 2.0 mph3.2 kmh 30.53 in1033.9 mb 0.00 in0.0 mm 0.00 in0.0 mm 0.00 in0.0 mm
02:00 AM 10.6°F-11.9°C 0.2°F-17.7°C 62% 0.8 mph N1.3 kmh N 2.0 mph3.2 kmh 30.52 in1033.5 mb 0.00 in0.0 mm 0.00 in0.0 mm 0.00 in0.0 mm
01:45 AM 11.5°F-11.4°C 1.1°F-17.2°C 62% Calm Calm -- 30.52 in1033.5 mb 0.00 in0.0 mm 0.00 in0.0 mm 0.00 in0.0 mm
01:30 AM 12.4°F-10.9°C 1.2°F-17.1°C 60% Calm Calm 2.0 mph3.2 kmh 30.52 in1033.5 mb 0.00 in0.0 mm 0.00 in0.0 mm 0.00 in0.0 mm
01:15 AM 13.5°F-10.3°C 2.2°F-16.6°C 60% Calm Calm 0.8 mph1.3 kmh 30.52 in1033.5 mb 0.00 in0.0 mm 0.00 in0.0 mm 0.00 in0.0 mm
01:00 AM 14.7°F-9.6°C 3.4°F-15.9°C 60% Calm Calm 2.0 mph3.2 kmh 30.52 in1033.5 mb 0.00 in0.0 mm 0.00 in0.0 mm 0.00 in0.0 mm
12:45 AM 15.6°F-9.1°C 4.3°F-15.4°C 60% Calm Calm 0.8 mph1.3 kmh 30.52 in1033.5 mb 0.00 in0.0 mm 0.00 in0.0 mm 0.00 in0.0 mm
12:30 AM 16.5°F-8.6°C 5.1°F-14.9°C 60% Calm Calm 2.0 mph3.2 kmh 30.51 in1033.2 mb 0.00 in0.0 mm 0.00 in0.0 mm 0.00 in0.0 mm
12:15 AM 17.4°F-8.1°C 6.0°F-14.4°C 60% Calm Calm 0.8 mph1.3 kmh 30.50 in1032.8 mb 0.00 in0.0 mm 0.00 in0.0 mm 0.00 in0.0 mm
12:00 AM 18.1°F-7.7°C 6.7°F-14.1°C 60% Calm Calm 2.0 mph3.2 kmh 30.50 in1032.8 mb 0.00 in0.0 mm 0.00 in0.0 mm 0.00 in0.0 mm